createdAt,value
2022-10-05T00:02:14.927Z,98690.00
2022-10-05T00:04:52.098Z,98677.00
2022-10-05T00:07:26.607Z,98695.00
2022-10-05T00:10:02.046Z,98677.00
2022-10-05T00:12:41.150Z,98687.00
2022-10-05T00:15:42.402Z,98680.00
2022-10-05T00:18:20.292Z,98682.00
2022-10-05T00:20:54.774Z,98680.00
2022-10-05T00:23:32.234Z,98691.00
2022-10-05T00:26:16.868Z,98684.00
2022-10-05T00:28:52.154Z,98688.00
2022-10-05T00:31:33.201Z,98690.00
2022-10-05T00:34:14.747Z,98690.00
2022-10-05T00:36:57.367Z,98695.00
2022-10-05T00:39:31.761Z,98682.00
2022-10-05T00:42:23.862Z,98684.00
2022-10-05T00:45:05.921Z,98662.00
2022-10-05T00:47:55.852Z,98683.00
2022-10-05T00:50:48.244Z,98671.00
2022-10-05T00:53:40.022Z,98664.00
2022-10-05T00:56:25.224Z,98666.00
2022-10-05T00:59:08.072Z,98680.00
2022-10-05T01:02:05.458Z,98661.00
2022-10-05T01:04:48.315Z,98681.00
2022-10-05T01:07:50.668Z,98668.00
2022-10-05T01:10:32.979Z,98666.00
2022-10-05T01:13:19.836Z,98667.00
2022-10-05T01:16:00.190Z,98658.00
2022-10-05T01:18:51.658Z,98668.00
2022-10-05T01:21:34.518Z,98660.00
2022-10-05T01:24:41.754Z,98664.00
2022-10-05T01:27:42.685Z,98656.00
2022-10-05T01:30:21.541Z,98656.00
2022-10-05T01:33:03.417Z,98667.00
2022-10-05T01:35:44.478Z,98660.00
2022-10-05T01:38:27.502Z,98660.00
2022-10-05T01:41:11.356Z,98623.00
2022-10-05T01:43:50.221Z,98649.00
2022-10-05T01:46:30.527Z,98652.00
2022-10-05T01:49:33.033Z,98613.00
2022-10-05T01:52:23.452Z,98645.00
2022-10-05T01:55:05.655Z,98651.00
2022-10-05T01:58:04.538Z,98649.00
2022-10-05T02:01:04.469Z,98637.00
2022-10-05T02:03:46.720Z,98633.00
2022-10-05T02:06:23.449Z,98645.00
2022-10-05T02:09:26.607Z,98639.00
2022-10-05T02:12:08.724Z,98642.00
2022-10-05T02:14:45.393Z,98632.00
2022-10-05T02:17:40.735Z,98640.00
2022-10-05T02:20:20.149Z,98636.00
2022-10-05T02:22:56.500Z,98618.00
2022-10-05T02:25:32.776Z,98631.00
2022-10-05T02:28:09.609Z,98612.00
2022-10-05T02:30:48.341Z,98615.00
2022-10-05T02:33:32.647Z,98605.00
2022-10-05T02:36:16.103Z,98624.00
2022-10-05T02:39:03.036Z,98625.00
2022-10-05T02:41:44.644Z,98596.00
2022-10-05T02:44:35.113Z,98620.00
2022-10-05T02:47:16.120Z,98623.00
2022-10-05T02:49:54.787Z,98623.00
2022-10-05T02:52:39.512Z,98616.00
2022-10-05T02:55:20.064Z,98601.00
2022-10-05T02:58:01.309Z,98599.00
2022-10-05T03:00:41.788Z,98594.00
2022-10-05T03:03:24.702Z,98590.00
2022-10-05T03:06:04.042Z,98610.00
2022-10-05T03:08:50.529Z,98589.00
2022-10-05T03:11:42.861Z,98601.00
2022-10-05T03:14:22.594Z,98615.00
2022-10-05T03:17:09.592Z,98614.00
2022-10-05T03:20:07.427Z,98615.00
2022-10-05T03:22:53.848Z,98617.00
2022-10-05T03:25:46.376Z,98621.00
2022-10-05T03:28:37.073Z,98611.00
2022-10-05T03:31:18.402Z,98620.00
2022-10-05T03:34:03.801Z,98617.00
2022-10-05T03:36:44.659Z,98626.00
2022-10-05T03:39:45.112Z,98626.00
2022-10-05T03:42:38.830Z,98616.00
2022-10-05T03:45:25.817Z,98629.00
2022-10-05T03:48:04.273Z,98624.00
2022-10-05T03:50:47.805Z,98620.00
2022-10-05T03:53:29.796Z,98598.00
2022-10-05T03:56:14.735Z,98603.00
2022-10-05T03:58:54.151Z,98605.00
2022-10-05T04:01:50.157Z,98598.00
2022-10-05T04:04:31.627Z,98583.00
2022-10-05T04:07:11.980Z,98587.00
2022-10-05T04:09:49.251Z,98589.00
2022-10-05T04:12:29.726Z,98577.00
2022-10-05T04:15:08.772Z,98585.00
2022-10-05T04:17:52.634Z,98582.00
2022-10-05T04:20:29.003Z,98572.00
2022-10-05T04:23:09.768Z,98567.00
2022-10-05T04:25:51.407Z,98568.00
2022-10-05T04:28:50.351Z,98562.00
2022-10-05T04:32:09.588Z,98574.00
2022-10-05T04:34:58.368Z,98569.00
2022-10-05T04:37:37.927Z,98560.00
2022-10-05T04:40:20.972Z,98578.00
2022-10-05T04:43:14.091Z,98570.00
2022-10-05T04:46:16.607Z,98564.00
2022-10-05T04:49:18.759Z,98574.00
2022-10-05T04:51:56.627Z,98581.00
2022-10-05T04:54:44.185Z,98581.00
2022-10-05T04:57:51.020Z,98567.00
2022-10-05T05:00:30.734Z,98562.00
2022-10-05T05:03:28.161Z,98586.00
2022-10-05T05:06:26.522Z,98584.00
2022-10-05T05:09:28.953Z,98574.00
2022-10-05T05:15:44.987Z,98575.00
2022-10-05T05:19:00.392Z,98599.00
2022-10-05T05:21:56.314Z,98594.00
2022-10-05T05:24:48.084Z,98589.00
2022-10-05T05:27:48.764Z,98596.00
2022-10-05T05:30:25.826Z,98596.00
2022-10-05T05:33:20.559Z,98608.00
2022-10-05T05:39:30.128Z,98626.00
2022-10-05T05:42:22.074Z,98613.00
2022-10-05T05:44:58.708Z,98596.00
2022-10-05T05:47:55.408Z,98625.00
2022-10-05T05:50:41.363Z,98622.00
2022-10-05T05:53:23.794Z,98642.00
2022-10-05T05:56:19.979Z,98621.00
2022-10-05T05:59:00.742Z,98639.00
2022-10-05T06:01:44.377Z,98655.00
2022-10-05T06:04:25.435Z,98643.00
2022-10-05T06:07:03.615Z,98648.00
2022-10-05T06:09:45.151Z,98651.00
2022-10-05T06:12:37.172Z,98639.00
2022-10-05T06:15:19.711Z,98659.00
2022-10-05T06:17:57.328Z,98655.00
2022-10-05T06:20:37.334Z,98649.00
2022-10-05T06:26:15.715Z,98651.00
2022-10-05T06:29:00.616Z,98660.00
2022-10-05T06:31:58.779Z,98671.00
2022-10-05T06:34:48.450Z,98659.00
2022-10-05T06:37:32.384Z,98655.00
2022-10-05T06:40:27.162Z,98656.00
2022-10-05T06:43:18.581Z,98661.00
2022-10-05T06:46:06.473Z,98688.00
2022-10-05T06:48:52.655Z,98690.00
2022-10-05T06:51:40.526Z,98691.00
2022-10-05T06:54:25.580Z,98695.00
2022-10-05T06:57:06.637Z,98689.00
2022-10-05T06:59:55.461Z,98703.00
2022-10-05T07:05:48.679Z,98687.00
2022-10-05T07:08:33.990Z,98683.00
2022-10-05T07:11:16.919Z,98688.00
2022-10-05T07:14:16.249Z,98687.00
2022-10-05T07:17:06.220Z,98691.00
2022-10-05T07:19:55.124Z,98681.00
2022-10-05T07:22:45.911Z,98675.00
2022-10-05T07:25:23.097Z,98695.00
2022-10-05T07:28:03.484Z,98702.00
2022-10-05T07:30:43.118Z,98684.00
2022-10-05T07:33:28.257Z,98687.00
2022-10-05T07:36:27.910Z,98696.00
2022-10-05T07:39:06.481Z,98703.00
2022-10-05T07:41:46.633Z,98681.00
2022-10-05T07:44:29.804Z,98711.00
2022-10-05T07:47:10.686Z,98685.00
2022-10-05T07:49:56.792Z,98697.00
2022-10-05T07:52:36.025Z,98709.00
2022-10-05T07:55:19.628Z,98719.00
2022-10-05T07:58:07.588Z,98716.00
2022-10-05T08:01:00.674Z,98713.00
2022-10-05T08:03:44.582Z,98718.00
2022-10-05T08:06:36.396Z,98740.00
2022-10-05T08:09:35.481Z,98726.00
2022-10-05T08:12:30.124Z,98725.00
2022-10-05T08:15:10.661Z,98728.00
2022-10-05T08:17:50.559Z,98722.00
2022-10-05T08:20:32.046Z,98726.00
2022-10-05T08:23:14.155Z,98703.00
2022-10-05T08:25:56.907Z,98726.00
2022-10-05T08:28:35.588Z,98728.00
2022-10-05T08:31:16.990Z,98724.00
2022-10-05T08:33:58.818Z,98732.00
2022-10-05T08:36:46.734Z,98721.00
2022-10-05T08:39:23.017Z,98734.00
2022-10-05T08:42:12.519Z,98714.00
2022-10-05T08:45:33.734Z,98727.00
2022-10-05T08:48:27.525Z,98725.00
2022-10-05T08:51:29.034Z,98705.00
2022-10-05T08:54:20.719Z,98714.00
2022-10-05T08:57:12.936Z,98695.00
2022-10-05T09:00:05.066Z,98721.00
2022-10-05T09:02:59.760Z,98712.00
2022-10-05T09:06:28.646Z,98702.00
2022-10-05T09:09:21.548Z,98700.00
2022-10-05T09:12:06.495Z,98704.00
2022-10-05T09:15:07.175Z,98706.00
2022-10-05T09:18:07.376Z,98723.00
2022-10-05T09:20:54.896Z,98702.00
2022-10-05T09:23:40.881Z,98699.00
2022-10-05T09:26:43.701Z,98713.00
2022-10-05T09:29:45.309Z,98706.00
2022-10-05T09:32:42.236Z,98700.00
2022-10-05T09:35:33.923Z,98696.00
2022-10-05T09:38:17.562Z,98711.00
2022-10-05T09:41:18.623Z,98702.00
2022-10-05T09:44:12.710Z,98698.00
2022-10-05T09:47:29.924Z,98707.00
2022-10-05T09:50:27.135Z,98708.00
2022-10-05T09:53:08.737Z,98699.00
2022-10-05T09:56:09.801Z,98700.00
2022-10-05T09:59:19.620Z,98685.00
2022-10-05T10:02:32.419Z,98697.00
2022-10-05T10:05:20.521Z,98693.00
2022-10-05T10:08:07.768Z,98682.00
2022-10-05T10:10:54.655Z,98685.00
2022-10-05T10:13:56.058Z,98690.00
2022-10-05T10:16:54.805Z,98676.00
2022-10-05T10:19:55.136Z,98678.00
2022-10-05T10:23:11.059Z,98681.00
2022-10-05T10:26:20.832Z,98665.00
2022-10-05T10:29:31.927Z,98676.00
2022-10-05T10:32:21.126Z,98672.00
2022-10-05T10:35:09.783Z,98681.00
2022-10-05T10:38:27.606Z,98674.00
2022-10-05T10:41:33.584Z,98662.00
2022-10-05T10:44:30.965Z,98667.00
2022-10-05T10:47:23.962Z,98656.00
2022-10-05T10:50:29.242Z,98647.00
2022-10-05T10:53:12.470Z,98659.00
2022-10-05T10:56:05.215Z,98666.00
2022-10-05T10:58:53.440Z,98642.00
2022-10-05T11:01:51.059Z,98641.00
2022-10-05T11:04:44.837Z,98647.00
2022-10-05T11:07:50.654Z,98638.00
2022-10-05T11:10:55.989Z,98635.00
2022-10-05T11:13:41.915Z,98626.00
2022-10-05T11:16:52.399Z,98641.00
2022-10-05T11:20:03.173Z,98629.00
2022-10-05T11:23:19.398Z,98625.00
2022-10-05T11:26:04.623Z,98619.00
2022-10-05T11:28:59.765Z,98625.00
2022-10-05T11:31:56.187Z,98624.00
2022-10-05T11:34:54.650Z,98625.00
2022-10-05T11:38:05.050Z,98611.00
2022-10-05T11:41:17.462Z,98618.00
2022-10-05T11:44:16.745Z,98619.00
2022-10-05T11:47:10.772Z,98618.00
2022-10-05T11:49:49.654Z,98613.00
2022-10-05T11:52:37.077Z,98598.00
2022-10-05T11:55:19.662Z,98596.00
2022-10-05T11:58:03.978Z,98609.00
2022-10-05T12:00:58.086Z,98600.00
2022-10-05T12:03:42.526Z,98596.00
2022-10-05T12:07:05.981Z,98591.00
2022-10-05T12:10:20.550Z,98591.00
2022-10-05T12:13:14.151Z,98587.00
2022-10-05T12:16:09.864Z,98584.00
2022-10-05T12:23:00.395Z,98572.00
2022-10-05T12:25:41.291Z,98572.00
2022-10-05T12:28:22.416Z,98576.00
2022-10-05T12:31:22.477Z,98573.00
2022-10-05T12:34:06.829Z,98552.00
2022-10-05T12:37:13.117Z,98568.00
2022-10-05T12:40:00.763Z,98564.00
2022-10-05T12:42:51.405Z,98572.00
2022-10-05T12:46:06.451Z,98563.00
2022-10-05T12:49:00.800Z,98564.00
2022-10-05T12:51:41.517Z,98558.00
2022-10-05T12:54:40.768Z,98564.00
2022-10-05T12:57:24.953Z,98562.00
2022-10-05T13:00:06.045Z,98574.00
2022-10-05T13:02:45.904Z,98553.00
2022-10-05T13:05:27.861Z,98563.00
2022-10-05T13:08:22.849Z,98564.00
2022-10-05T13:11:43.206Z,98564.00
2022-10-05T13:14:33.021Z,98563.00
2022-10-05T13:17:19.920Z,98554.00
2022-10-05T13:23:26.776Z,98563.00
2022-10-05T13:30:03.029Z,98549.00
2022-10-05T13:37:03.969Z,98555.00
2022-10-05T13:39:53.117Z,98556.00
2022-10-05T13:42:35.035Z,98521.00
2022-10-05T13:45:15.487Z,98545.00
2022-10-05T13:48:15.881Z,98540.00
2022-10-05T13:50:55.938Z,98554.00
2022-10-05T13:53:36.916Z,98529.00
2022-10-05T13:56:22.699Z,98539.00
2022-10-05T13:59:53.457Z,98541.00
2022-10-05T14:02:57.612Z,98542.00
2022-10-05T14:05:38.200Z,98541.00
2022-10-05T14:08:48.139Z,98541.00
2022-10-05T14:11:28.931Z,98531.00
2022-10-05T14:14:06.316Z,98529.00
2022-10-05T14:16:46.930Z,98522.00
2022-10-05T14:19:28.828Z,98536.00
2022-10-05T14:22:05.723Z,98540.00
2022-10-05T14:24:57.394Z,98531.00
2022-10-05T14:28:03.895Z,98539.00
2022-10-05T14:30:39.931Z,98536.00
2022-10-05T14:33:18.551Z,98525.00
2022-10-05T14:35:57.644Z,98513.00
2022-10-05T14:38:52.257Z,98526.00
2022-10-05T14:41:48.231Z,98517.00
2022-10-05T14:47:19.601Z,98502.00
2022-10-05T14:50:31.339Z,98523.00
2022-10-05T14:53:17.586Z,98516.00
2022-10-05T14:56:25.431Z,98520.00
2022-10-05T14:59:53.839Z,98522.00
2022-10-05T15:02:59.752Z,98525.00
2022-10-05T15:06:01.611Z,98523.00
2022-10-05T15:08:48.186Z,98516.00
2022-10-05T15:11:35.074Z,98522.00
2022-10-05T15:14:16.659Z,98510.00
2022-10-05T15:16:52.958Z,98531.00
2022-10-05T15:19:36.300Z,98527.00
2022-10-05T15:22:41.302Z,98522.00
2022-10-05T15:25:23.139Z,98523.00
2022-10-05T15:28:12.934Z,98517.00
2022-10-05T15:30:53.898Z,98523.00
2022-10-05T15:33:34.502Z,98518.00
2022-10-05T15:36:15.676Z,98514.00
2022-10-05T15:39:00.454Z,98507.00
2022-10-05T15:42:02.309Z,98526.00
2022-10-05T15:44:52.284Z,98530.00
2022-10-05T15:47:45.412Z,98525.00
2022-10-05T15:50:33.752Z,98515.00
2022-10-05T15:53:18.733Z,98536.00
2022-10-05T15:55:56.443Z,98541.00
2022-10-05T15:58:48.311Z,98523.00
2022-10-05T16:01:44.859Z,98535.00
2022-10-05T16:04:31.591Z,98536.00
2022-10-05T16:07:31.772Z,98537.00
2022-10-05T16:10:14.136Z,98536.00
2022-10-05T16:12:54.999Z,98538.00
2022-10-05T16:15:42.889Z,98529.00
2022-10-05T16:18:47.969Z,98539.00
2022-10-05T16:21:31.900Z,98543.00
2022-10-05T16:24:38.425Z,98556.00
2022-10-05T16:31:13.445Z,98562.00
2022-10-05T16:33:57.449Z,98570.00
2022-10-05T16:36:44.751Z,98574.00
2022-10-05T16:39:48.947Z,98571.00
2022-10-05T16:42:34.777Z,98578.00
2022-10-05T16:45:27.626Z,98588.00
2022-10-05T16:48:20.291Z,98588.00
2022-10-05T16:51:05.035Z,98592.00
2022-10-05T16:53:43.063Z,98597.00
2022-10-05T16:56:27.575Z,98601.00
2022-10-05T16:59:11.266Z,98583.00
2022-10-05T17:01:57.648Z,98591.00
2022-10-05T17:04:41.843Z,98586.00
2022-10-05T17:07:35.058Z,98608.00
2022-10-05T17:10:30.284Z,98606.00
2022-10-05T17:13:07.367Z,98617.00
2022-10-05T17:15:51.196Z,98626.00
2022-10-05T17:18:49.359Z,98626.00
2022-10-05T17:21:31.051Z,98638.00
2022-10-05T17:24:20.328Z,98640.00
2022-10-05T17:27:02.590Z,98635.00
2022-10-05T17:29:48.277Z,98631.00
2022-10-05T17:32:56.376Z,98645.00
2022-10-05T17:35:51.942Z,98635.00
2022-10-05T17:38:47.083Z,98643.00
2022-10-05T17:41:26.247Z,98651.00
2022-10-05T17:44:33.744Z,98649.00
2022-10-05T17:47:57.542Z,98642.00
2022-10-05T17:50:56.583Z,98653.00
2022-10-05T17:53:58.069Z,98645.00
2022-10-05T17:56:33.822Z,98646.00
2022-10-05T17:59:12.969Z,98640.00
2022-10-05T18:02:17.101Z,98647.00
2022-10-05T18:05:04.137Z,98632.00
2022-10-05T18:07:50.381Z,98650.00
2022-10-05T18:10:29.029Z,98621.00
2022-10-05T18:13:36.016Z,98651.00
2022-10-05T18:16:10.995Z,98641.00
2022-10-05T18:18:59.980Z,98648.00
2022-10-05T18:21:37.711Z,98640.00
2022-10-05T18:24:28.097Z,98657.00
2022-10-05T18:27:30.760Z,98649.00
2022-10-05T18:30:19.664Z,98666.00
2022-10-05T18:33:21.153Z,98658.00
2022-10-05T18:36:04.712Z,98669.00
2022-10-05T18:38:46.112Z,98663.00
2022-10-05T18:41:25.213Z,98674.00
2022-10-05T18:44:08.684Z,98662.00
2022-10-05T18:46:48.440Z,98675.00
2022-10-05T18:49:48.391Z,98684.00
2022-10-05T18:52:31.071Z,98685.00
2022-10-05T18:55:15.505Z,98684.00
2022-10-05T18:57:59.646Z,98685.00
2022-10-05T19:00:51.543Z,98699.00
2022-10-05T19:03:43.189Z,98685.00
2022-10-05T19:06:23.414Z,98680.00
2022-10-05T19:09:08.357Z,98702.00
2022-10-05T19:11:51.674Z,98698.00
2022-10-05T19:14:50.691Z,98713.00
2022-10-05T19:17:29.881Z,98710.00
2022-10-05T19:20:17.643Z,98691.00
2022-10-05T19:23:09.380Z,98704.00
2022-10-05T19:25:48.416Z,98710.00
2022-10-05T19:28:29.144Z,98709.00
2022-10-05T19:31:17.611Z,98705.00
2022-10-05T19:34:07.506Z,98723.00
2022-10-05T19:36:51.145Z,98723.00
2022-10-05T19:39:42.192Z,98742.00
2022-10-05T19:42:45.189Z,98712.00
2022-10-05T19:45:23.503Z,98738.00
2022-10-05T19:48:08.609Z,98744.00
2022-10-05T19:50:54.827Z,98750.00
2022-10-05T19:53:31.736Z,98748.00
2022-10-05T19:56:20.208Z,98726.00
2022-10-05T19:58:57.497Z,98760.00
2022-10-05T20:01:34.149Z,98766.00
2022-10-05T20:04:13.080Z,98769.00
2022-10-05T20:06:50.723Z,98761.00
2022-10-05T20:09:25.267Z,98760.00
2022-10-05T20:11:59.395Z,98770.00
2022-10-05T20:14:59.330Z,98777.00
2022-10-05T20:17:47.486Z,98788.00
2022-10-05T20:20:33.120Z,98796.00
2022-10-05T20:23:25.046Z,98794.00
2022-10-05T20:26:18.466Z,98796.00
2022-10-05T20:28:52.719Z,98799.00
2022-10-05T20:31:32.304Z,98810.00
2022-10-05T20:34:06.839Z,98819.00
2022-10-05T20:36:43.275Z,98816.00
2022-10-05T20:39:21.391Z,98812.00
2022-10-05T20:41:55.639Z,98828.00
2022-10-05T20:44:37.801Z,98830.00
2022-10-05T20:47:13.803Z,98831.00
2022-10-05T20:49:47.963Z,98826.00
2022-10-05T20:52:24.998Z,98825.00
2022-10-05T20:55:00.698Z,98837.00
2022-10-05T20:57:41.523Z,98844.00
2022-10-05T21:00:15.733Z,98856.00
2022-10-05T21:02:49.831Z,98851.00
2022-10-05T21:05:23.907Z,98846.00
2022-10-05T21:07:57.976Z,98865.00
2022-10-05T21:10:33.639Z,98866.00
2022-10-05T21:13:07.767Z,98877.00
2022-10-05T21:15:41.920Z,98872.00
2022-10-05T21:18:20.323Z,98860.00
2022-10-05T21:20:59.846Z,98857.00
2022-10-05T21:23:37.411Z,98866.00
2022-10-05T21:26:15.055Z,98881.00
2022-10-05T21:28:55.159Z,98882.00
2022-10-05T21:31:29.852Z,98880.00
2022-10-05T21:34:04.318Z,98882.00
2022-10-05T21:36:43.107Z,98870.00
2022-10-05T21:39:17.311Z,98889.00
2022-10-05T21:41:52.895Z,98870.00
2022-10-05T21:44:27.213Z,98910.00
2022-10-05T21:47:13.331Z,98886.00
2022-10-05T21:49:47.493Z,98890.00
2022-10-05T21:52:21.887Z,98902.00
2022-10-05T21:54:56.667Z,98897.00
2022-10-05T21:57:32.654Z,98912.00
2022-10-05T22:00:10.559Z,98906.00
2022-10-05T22:02:50.377Z,98906.00
2022-10-05T22:05:24.501Z,98908.00
2022-10-05T22:07:59.108Z,98906.00
2022-10-05T22:10:37.215Z,98912.00
2022-10-05T22:13:14.538Z,98918.00
2022-10-05T22:15:48.928Z,98906.00
2022-10-05T22:18:24.706Z,98933.00
2022-10-05T22:20:58.973Z,98926.00
2022-10-05T22:23:33.795Z,98919.00
2022-10-05T22:26:14.651Z,98913.00
2022-10-05T22:28:55.117Z,98935.00
2022-10-05T22:31:29.561Z,98933.00
2022-10-05T22:34:03.794Z,98930.00
2022-10-05T22:36:38.508Z,98932.00
2022-10-05T22:39:12.674Z,98932.00
2022-10-05T22:41:46.935Z,98928.00
2022-10-05T22:44:26.919Z,98924.00
2022-10-05T22:47:00.997Z,98933.00
2022-10-05T22:49:35.088Z,98938.00
2022-10-05T22:52:09.327Z,98936.00
2022-10-05T22:54:49.270Z,98914.00
2022-10-05T22:57:23.512Z,98916.00
2022-10-05T22:59:59.196Z,98923.00
2022-10-05T23:02:37.702Z,98924.00
2022-10-05T23:05:14.770Z,98932.00
2022-10-05T23:07:49.025Z,98908.00
2022-10-05T23:10:23.518Z,98933.00
2022-10-05T23:13:00.984Z,98941.00
2022-10-05T23:15:37.563Z,98943.00
2022-10-05T23:18:12.828Z,98941.00
2022-10-05T23:20:55.022Z,98941.00
2022-10-05T23:23:29.294Z,98941.00
2022-10-05T23:26:04.316Z,98955.00
2022-10-05T23:28:47.315Z,98943.00
2022-10-05T23:31:33.650Z,98937.00
2022-10-05T23:34:13.157Z,98950.00
2022-10-05T23:36:47.378Z,98935.00
2022-10-05T23:39:25.213Z,98934.00
2022-10-05T23:42:00.721Z,98952.00
2022-10-05T23:44:44.218Z,98948.00
2022-10-05T23:47:21.783Z,98951.00
2022-10-05T23:49:56.435Z,98958.00
2022-10-05T23:52:31.216Z,98957.00
2022-10-05T23:55:08.324Z,98968.00
2022-10-05T23:57:43.245Z,98980.00
